createdAt,value
2022-12-17T00:02:42.594Z,96395.84
2022-12-17T00:05:28.547Z,96395.59
2022-12-17T00:08:18.178Z,96396.06
2022-12-17T00:11:04.375Z,96403.28
2022-12-17T00:13:51.267Z,96405.66
2022-12-17T00:16:37.910Z,96402.72
2022-12-17T00:19:23.774Z,96401.06
2022-12-17T00:22:09.654Z,96415.34
2022-12-17T00:24:56.405Z,96422.25
2022-12-17T00:27:42.374Z,96424.44
2022-12-17T00:30:30.034Z,96432.19
2022-12-17T00:33:16.037Z,96433.03
2022-12-17T00:35:58.621Z,96436.19
2022-12-17T00:38:44.678Z,96438.84
2022-12-17T00:41:30.475Z,96446.09
2022-12-17T00:44:20.389Z,96442.09
2022-12-17T00:47:07.676Z,96457.06
2022-12-17T00:49:53.637Z,96455.53
2022-12-17T00:52:42.147Z,96458.44
2022-12-17T00:55:28.376Z,96463.84
2022-12-17T00:58:15.068Z,96469.22
2022-12-17T01:01:01.550Z,96466.78
2022-12-17T01:03:48.634Z,96465.38
2022-12-17T01:06:34.734Z,96473.28
2022-12-17T01:09:20.326Z,96480.63
2022-12-17T01:12:06.113Z,96483.53
2022-12-17T01:14:51.671Z,96483.22
2022-12-17T01:17:37.768Z,96493.75
2022-12-17T01:20:26.050Z,96498.41
2022-12-17T01:23:11.660Z,96501.09
2022-12-17T01:25:57.658Z,96501.44
2022-12-17T01:28:44.479Z,96504.38
2022-12-17T01:31:39.022Z,96500.69
2022-12-17T01:34:39.514Z,96509.69
2022-12-17T01:37:26.708Z,96509.50
2022-12-17T01:40:12.764Z,96518.47
2022-12-17T01:42:59.863Z,96521.41
2022-12-17T01:45:46.253Z,96520.72
2022-12-17T01:48:34.396Z,96521.03
2022-12-17T01:51:20.976Z,96527.06
2022-12-17T01:54:06.286Z,96535.50
2022-12-17T01:56:53.022Z,96530.75
2022-12-17T01:59:43.796Z,96527.31
2022-12-17T02:02:29.687Z,96538.41
2022-12-17T02:05:15.519Z,96543.06
2022-12-17T02:08:17.422Z,96544.69
2022-12-17T02:11:08.712Z,96549.00
2022-12-17T02:13:58.419Z,96547.81
2022-12-17T02:16:49.903Z,96548.59
2022-12-17T02:19:42.818Z,96545.16
2022-12-17T02:22:34.493Z,96548.75
2022-12-17T02:25:24.875Z,96547.28
2022-12-17T02:28:12.310Z,96551.19
2022-12-17T02:30:54.871Z,96554.69
2022-12-17T02:33:40.746Z,96557.13
2022-12-17T02:36:27.253Z,96546.34
2022-12-17T02:39:13.182Z,96561.78
2022-12-17T02:42:02.077Z,96554.16
2022-12-17T02:44:50.320Z,96566.22
2022-12-17T02:47:37.578Z,96569.75
2022-12-17T02:50:24.143Z,96569.13
2022-12-17T02:53:09.387Z,96572.72
2022-12-17T02:55:55.948Z,96583.72
2022-12-17T02:58:42.104Z,96581.31
2022-12-17T03:01:29.258Z,96593.88
2022-12-17T03:04:15.211Z,96601.09
2022-12-17T03:07:02.650Z,96601.69
2022-12-17T03:09:48.749Z,96598.66
2022-12-17T03:12:34.538Z,96598.31
2022-12-17T03:15:20.245Z,96604.34
2022-12-17T03:18:07.163Z,96607.22
2022-12-17T03:20:53.059Z,96617.78
2022-12-17T03:23:39.151Z,96611.25
2022-12-17T03:26:25.585Z,96626.25
2022-12-17T03:29:11.026Z,96626.75
2022-12-17T03:31:56.759Z,96616.59
2022-12-17T03:34:43.964Z,96627.41
2022-12-17T03:37:29.468Z,96629.47
2022-12-17T03:40:15.332Z,96632.19
2022-12-17T03:43:00.996Z,96640.91
2022-12-17T03:45:46.755Z,96638.97
2022-12-17T03:48:33.741Z,96634.72
2022-12-17T03:51:29.905Z,96634.03
2022-12-17T03:54:24.264Z,96630.81
2022-12-17T03:57:15.793Z,96643.59
2022-12-17T04:00:01.868Z,96641.63
2022-12-17T04:02:47.913Z,96642.88
2022-12-17T04:05:33.977Z,96643.50
2022-12-17T04:08:21.291Z,96646.63
2022-12-17T04:11:07.236Z,96654.66
2022-12-17T04:13:53.182Z,96656.28
2022-12-17T04:16:38.860Z,96659.50
2022-12-17T04:19:24.630Z,96657.94
2022-12-17T04:22:10.696Z,96659.25
2022-12-17T04:24:57.590Z,96661.34
2022-12-17T04:27:43.287Z,96667.44
2022-12-17T04:30:30.032Z,96672.19
2022-12-17T04:33:24.384Z,96674.53
2022-12-17T04:36:10.377Z,96679.72
2022-12-17T04:38:56.219Z,96683.03
2022-12-17T04:41:43.602Z,96693.50
2022-12-17T04:44:29.567Z,96701.41
2022-12-17T04:47:15.485Z,96708.97
2022-12-17T04:50:01.578Z,96713.69
2022-12-17T04:52:47.548Z,96703.75
2022-12-17T04:55:33.410Z,96702.78
2022-12-17T04:58:22.505Z,96707.28
2022-12-17T05:01:09.964Z,96706.03
2022-12-17T05:03:56.131Z,96706.13
2022-12-17T05:06:42.097Z,96711.88
2022-12-17T05:09:28.000Z,96721.84
2022-12-17T05:12:13.906Z,96715.38
2022-12-17T05:15:01.259Z,96719.53
2022-12-17T05:17:47.093Z,96722.03
2022-12-17T05:20:33.012Z,96725.13
2022-12-17T05:23:23.553Z,96731.47
2022-12-17T05:26:16.406Z,96756.44
2022-12-17T05:29:02.493Z,96762.78
2022-12-17T05:31:49.706Z,96762.81
2022-12-17T05:34:35.667Z,96762.72
2022-12-17T05:37:21.547Z,96763.88
2022-12-17T05:40:12.437Z,96765.25
2022-12-17T05:42:58.631Z,96769.09
2022-12-17T05:45:44.548Z,96777.81
2022-12-17T05:48:31.660Z,96777.63
2022-12-17T05:51:17.448Z,96786.06
2022-12-17T05:54:03.395Z,96788.72
2022-12-17T05:56:49.317Z,96788.50
2022-12-17T05:59:35.232Z,96790.63
2022-12-17T06:02:21.247Z,96797.84
2022-12-17T06:05:08.515Z,96801.16
2022-12-17T06:07:54.429Z,96814.22
2022-12-17T06:10:40.472Z,96813.50
2022-12-17T06:13:26.394Z,96817.94
2022-12-17T06:16:12.918Z,96820.78
2022-12-17T06:18:58.816Z,96823.69
2022-12-17T06:21:46.046Z,96821.53
2022-12-17T06:24:32.068Z,96827.81
2022-12-17T06:27:18.021Z,96828.63
2022-12-17T06:30:03.961Z,96828.13
2022-12-17T06:32:49.859Z,96831.78
2022-12-17T06:35:35.562Z,96840.38
2022-12-17T06:38:24.399Z,96840.19
2022-12-17T06:41:10.417Z,96841.69
2022-12-17T06:43:56.155Z,96849.47
2022-12-17T06:46:42.189Z,96856.00
2022-12-17T06:49:28.006Z,96866.88
2022-12-17T06:52:13.891Z,96874.22
2022-12-17T06:55:01.029Z,96874.09
2022-12-17T06:57:50.376Z,96883.88
2022-12-17T07:00:36.684Z,96879.97
2022-12-17T07:03:22.622Z,96888.56
2022-12-17T07:06:08.416Z,96892.13
2022-12-17T07:08:54.337Z,96893.56
2022-12-17T07:11:41.445Z,96897.16
2022-12-17T07:14:27.282Z,96898.81
2022-12-17T07:17:21.574Z,96905.22
2022-12-17T07:20:07.325Z,96907.69
2022-12-17T07:22:53.303Z,96902.75
2022-12-17T07:25:44.346Z,96908.31
2022-12-17T07:28:33.087Z,96909.19
2022-12-17T07:31:19.011Z,96906.97
2022-12-17T07:34:04.991Z,96911.25
2022-12-17T07:36:51.036Z,96918.69
2022-12-17T07:39:37.039Z,96921.19
2022-12-17T07:42:23.176Z,96922.03
2022-12-17T07:45:10.384Z,96924.91
2022-12-17T07:47:56.458Z,96920.25
2022-12-17T07:50:42.395Z,96927.50
2022-12-17T07:53:28.303Z,96925.34
2022-12-17T07:56:14.279Z,96923.13
2022-12-17T07:59:00.070Z,96929.47
2022-12-17T08:01:47.392Z,96934.50
2022-12-17T08:04:33.500Z,96928.50
2022-12-17T08:07:19.266Z,96936.78
2022-12-17T08:10:05.080Z,96934.72
2022-12-17T08:12:51.120Z,96947.72
2022-12-17T08:15:36.867Z,96954.41
2022-12-17T08:18:26.766Z,96949.94
2022-12-17T08:21:12.881Z,96964.28
2022-12-17T08:23:58.717Z,96959.38
2022-12-17T08:26:48.144Z,96963.22
2022-12-17T08:29:34.292Z,96973.63
2022-12-17T08:32:19.324Z,96974.47
2022-12-17T08:35:06.562Z,96978.78
2022-12-17T08:37:52.482Z,96982.75
2022-12-17T08:40:38.326Z,96987.34
2022-12-17T08:43:24.298Z,96987.94
2022-12-17T08:46:10.740Z,96991.47
2022-12-17T08:48:56.683Z,96995.00
2022-12-17T08:51:43.986Z,96995.38
2022-12-17T08:54:30.087Z,96988.44
2022-12-17T08:57:27.019Z,96995.09
2022-12-17T09:00:16.610Z,96986.88
2022-12-17T09:03:02.542Z,96995.94
2022-12-17T09:05:48.617Z,96998.66
2022-12-17T09:08:35.869Z,96985.22
2022-12-17T09:11:21.841Z,97004.09
2022-12-17T09:14:19.236Z,97001.16
2022-12-17T09:17:05.678Z,97003.72
2022-12-17T09:19:53.818Z,97008.28
2022-12-17T09:22:39.918Z,97012.22
2022-12-17T09:25:27.606Z,97020.41
2022-12-17T09:28:13.581Z,97017.06
2022-12-17T09:30:59.526Z,97018.88
2022-12-17T09:33:45.509Z,97026.47
2022-12-17T09:36:31.418Z,97028.22
2022-12-17T09:39:17.348Z,97026.63
2022-12-17T09:42:11.131Z,97021.09
2022-12-17T09:45:03.729Z,97030.81
2022-12-17T09:48:07.330Z,97036.13
2022-12-17T09:50:53.271Z,97033.75
2022-12-17T09:53:42.868Z,97039.91
2022-12-17T09:56:30.437Z,97044.53
2022-12-17T09:59:17.817Z,97042.41
2022-12-17T10:02:03.536Z,97052.22
2022-12-17T10:04:52.775Z,97048.97
2022-12-17T10:07:41.854Z,97046.91
2022-12-17T10:10:34.895Z,97049.13
2022-12-17T10:13:20.886Z,97052.19
2022-12-17T10:16:08.176Z,97051.88
2022-12-17T10:18:54.235Z,97053.00
2022-12-17T10:21:42.972Z,97057.69
2022-12-17T10:24:41.427Z,97059.78
2022-12-17T10:27:28.424Z,97059.56
2022-12-17T10:30:14.212Z,97067.25
2022-12-17T10:33:01.476Z,97064.78
2022-12-17T10:35:54.610Z,97063.59
2022-12-17T10:38:41.758Z,97062.09
2022-12-17T10:41:38.776Z,97057.25
2022-12-17T10:44:42.070Z,97062.19
2022-12-17T10:47:31.174Z,97066.03
2022-12-17T10:50:19.634Z,97068.25
2022-12-17T10:53:06.430Z,97073.97
2022-12-17T10:55:53.575Z,97069.78
2022-12-17T10:58:40.956Z,97081.69
2022-12-17T11:01:30.561Z,97083.47
2022-12-17T11:04:32.014Z,97089.84
2022-12-17T11:07:19.238Z,97081.06
2022-12-17T11:10:09.765Z,97090.22
2022-12-17T11:12:58.313Z,97091.81
2022-12-17T11:15:46.243Z,97088.84
2022-12-17T11:18:36.758Z,97090.00
2022-12-17T11:21:26.260Z,97095.31
2022-12-17T11:24:19.123Z,97095.34
2022-12-17T11:27:10.993Z,97093.84
2022-12-17T11:29:56.990Z,97102.44
2022-12-17T11:33:09.535Z,97104.31
2022-12-17T11:36:01.716Z,97101.00
2022-12-17T11:38:56.957Z,97096.38
2022-12-17T11:41:56.081Z,97094.31
2022-12-17T11:44:51.309Z,97089.75
2022-12-17T11:47:46.236Z,97086.44
2022-12-17T11:50:39.691Z,97090.41
2022-12-17T11:53:38.230Z,97093.16
2022-12-17T11:56:28.689Z,97085.53
2022-12-17T11:59:18.803Z,97082.03
2022-12-17T12:02:08.078Z,97075.22
2022-12-17T12:05:26.263Z,97075.22
2022-12-17T12:08:31.451Z,97076.81
2022-12-17T12:11:29.722Z,97067.28
2022-12-17T12:14:23.254Z,97083.75
2022-12-17T12:17:13.585Z,97083.19
2022-12-17T12:20:06.435Z,97070.31
2022-12-17T12:22:56.306Z,97079.81
2022-12-17T12:25:49.148Z,97067.69
2022-12-17T12:28:43.556Z,97068.81
2022-12-17T12:31:37.620Z,97076.25
2022-12-17T12:34:27.393Z,97075.53
2022-12-17T12:37:13.327Z,97076.34
2022-12-17T12:40:03.960Z,97081.81
2022-12-17T12:42:50.963Z,97081.41
2022-12-17T12:45:50.009Z,97075.16
2022-12-17T12:48:48.163Z,97069.53
2022-12-17T12:51:38.035Z,97074.22
2022-12-17T12:54:42.212Z,97083.66
2022-12-17T12:57:49.908Z,97081.69
2022-12-17T13:00:48.496Z,97077.69
2022-12-17T13:03:43.930Z,97089.94
2022-12-17T13:06:12.948Z,97091.13
2022-12-17T13:08:41.465Z,97086.81
2022-12-17T13:11:27.217Z,97080.97
2022-12-17T13:13:56.858Z,97078.03
2022-12-17T13:16:34.024Z,97089.06
2022-12-17T13:19:05.955Z,97084.84
2022-12-17T13:21:34.259Z,97086.53
2022-12-17T13:24:11.738Z,97088.97
2022-12-17T13:26:46.502Z,97091.41
2022-12-17T13:29:24.347Z,97095.53
2022-12-17T13:32:03.616Z,97095.75
2022-12-17T13:34:42.397Z,97108.47
2022-12-17T13:37:15.853Z,97107.69
2022-12-17T13:39:50.986Z,97104.44
2022-12-17T13:42:23.320Z,97113.34
2022-12-17T13:44:55.646Z,97124.81
2022-12-17T13:47:25.530Z,97126.28
2022-12-17T13:50:32.730Z,97130.69
2022-12-17T13:52:45.424Z,97136.75
2022-12-17T13:55:21.034Z,97143.75
2022-12-17T13:57:50.504Z,97144.31
2022-12-17T14:00:22.097Z,97154.66
2022-12-17T14:02:50.754Z,97161.59
2022-12-17T14:05:32.622Z,97163.75
2022-12-17T14:08:03.245Z,97163.63
2022-12-17T14:10:31.376Z,97162.22
2022-12-17T14:13:04.060Z,97171.72
2022-12-17T14:15:32.347Z,97178.25
2022-12-17T14:18:00.934Z,97166.03
2022-12-17T14:20:32.337Z,97170.84
2022-12-17T14:23:01.962Z,97175.69
2022-12-17T14:25:32.811Z,97183.53
2022-12-17T14:28:02.667Z,97177.06
2022-12-17T14:30:43.039Z,97181.78
2022-12-17T14:33:29.178Z,97172.50
2022-12-17T14:36:02.515Z,97178.50
2022-12-17T14:38:38.437Z,97174.16
2022-12-17T14:41:36.335Z,97186.19
2022-12-17T14:44:05.486Z,97190.56
2022-12-17T14:46:35.662Z,97200.34
2022-12-17T14:49:05.909Z,97195.28
2022-12-17T14:51:38.034Z,97198.91
2022-12-17T14:54:07.933Z,97191.41
2022-12-17T14:56:36.177Z,97191.28
2022-12-17T14:59:04.416Z,97189.72
2022-12-17T15:01:33.130Z,97187.69
2022-12-17T15:04:01.539Z,97201.75
2022-12-17T15:06:29.927Z,97202.03
2022-12-17T15:08:59.494Z,97206.78
2022-12-17T15:11:28.447Z,97217.66
2022-12-17T15:13:56.997Z,97213.50
2022-12-17T15:16:25.426Z,97229.75
2022-12-17T15:18:54.183Z,97234.47
2022-12-17T15:21:22.532Z,97229.81
2022-12-17T15:23:50.949Z,97240.13
2022-12-17T15:26:21.401Z,97236.13
2022-12-17T15:28:49.594Z,97243.91
2022-12-17T15:31:23.187Z,97242.19
2022-12-17T15:33:53.130Z,97246.56
2022-12-17T15:36:21.509Z,97243.31
2022-12-17T15:38:49.809Z,97234.16
2022-12-17T15:41:35.836Z,97239.81
2022-12-17T15:44:05.999Z,97246.59
2022-12-17T15:46:34.696Z,97245.44
2022-12-17T15:49:03.830Z,97244.66
2022-12-17T15:51:32.301Z,97247.97
2022-12-17T15:54:00.767Z,97255.75
2022-12-17T15:56:29.846Z,97254.69
2022-12-17T15:58:58.598Z,97256.56
2022-12-17T16:01:28.423Z,97257.63
2022-12-17T16:03:56.807Z,97261.97
2022-12-17T16:06:25.221Z,97270.63
2022-12-17T16:08:53.433Z,97263.00
2022-12-17T16:11:22.093Z,97264.88
2022-12-17T16:13:54.998Z,97267.06
2022-12-17T16:16:23.981Z,97274.53
2022-12-17T16:18:53.605Z,97268.53
2022-12-17T16:21:21.860Z,97267.25
2022-12-17T16:23:50.220Z,97270.56
2022-12-17T16:26:18.498Z,97265.41
2022-12-17T16:28:47.058Z,97270.84
2022-12-17T16:31:16.590Z,97278.63
2022-12-17T16:33:47.462Z,97275.50
2022-12-17T16:36:18.625Z,97277.44
2022-12-17T16:38:48.360Z,97285.88
2022-12-17T16:41:17.611Z,97283.59
2022-12-17T16:43:46.495Z,97286.22
2022-12-17T16:46:28.973Z,97283.59
2022-12-17T16:48:58.817Z,97290.50
2022-12-17T16:51:29.765Z,97291.97
2022-12-17T16:53:58.987Z,97292.66
2022-12-17T16:56:29.168Z,97289.03
2022-12-17T16:58:57.692Z,97297.72
2022-12-17T17:01:28.168Z,97296.03
2022-12-17T17:03:57.399Z,97300.66
2022-12-17T17:06:30.260Z,97299.53
2022-12-17T17:09:04.647Z,97302.78
2022-12-17T17:11:32.958Z,97292.53
2022-12-17T17:14:01.305Z,97305.06
2022-12-17T17:16:30.419Z,97301.78
2022-12-17T17:18:58.761Z,97305.59
2022-12-17T17:21:29.524Z,97304.59
2022-12-17T17:23:59.953Z,97303.78
2022-12-17T17:26:29.861Z,97306.94
2022-12-17T17:28:58.323Z,97318.31
2022-12-17T17:32:01.061Z,97317.06
2022-12-17T17:34:15.958Z,97321.19
2022-12-17T17:36:44.331Z,97329.69
2022-12-17T17:39:12.600Z,97337.06
2022-12-17T17:41:42.304Z,97342.59
2022-12-17T17:44:13.211Z,97338.59
2022-12-17T17:46:41.811Z,97338.63
2022-12-17T17:49:11.897Z,97340.72
2022-12-17T17:52:12.354Z,97352.56
2022-12-17T17:54:30.728Z,97348.88
2022-12-17T17:57:00.359Z,97347.91
2022-12-17T17:59:33.395Z,97346.00
2022-12-17T18:02:02.451Z,97350.16
2022-12-17T18:04:31.702Z,97347.53
2022-12-17T18:07:24.152Z,97350.56
2022-12-17T18:09:48.203Z,97354.97
2022-12-17T18:12:35.512Z,97367.09
2022-12-17T18:15:19.102Z,97371.66
2022-12-17T18:17:51.004Z,97375.34
2022-12-17T18:20:20.607Z,97384.88
2022-12-17T18:22:50.488Z,97385.00
2022-12-17T18:25:18.940Z,97382.13
2022-12-17T18:27:48.720Z,97382.22
2022-12-17T18:30:17.311Z,97387.53
2022-12-17T18:32:46.203Z,97382.50
2022-12-17T18:35:14.505Z,97389.78
2022-12-17T18:37:42.843Z,97383.41
2022-12-17T18:40:11.857Z,97382.03
2022-12-17T18:42:57.754Z,97376.41
2022-12-17T18:45:27.320Z,97388.06
2022-12-17T18:47:55.545Z,97387.66
2022-12-17T18:50:23.877Z,97383.97
2022-12-17T18:52:52.130Z,97389.28
2022-12-17T18:55:20.439Z,97390.13
2022-12-17T18:57:48.693Z,97382.41
2022-12-17T19:00:17.173Z,97391.16
2022-12-17T19:02:46.930Z,97386.88
2022-12-17T19:05:15.487Z,97386.34
2022-12-17T19:07:43.804Z,97381.69
2022-12-17T19:10:12.082Z,97394.00
2022-12-17T19:12:40.397Z,97400.59
2022-12-17T19:15:09.957Z,97393.41
2022-12-17T19:17:38.178Z,97396.00
2022-12-17T19:20:09.228Z,97402.88
2022-12-17T19:22:37.532Z,97393.03
2022-12-17T19:25:06.511Z,97413.03
2022-12-17T19:27:34.722Z,97406.88
2022-12-17T19:30:02.991Z,97400.50
2022-12-17T19:32:31.539Z,97396.91
2022-12-17T19:34:59.748Z,97401.59
2022-12-17T19:37:29.429Z,97397.88
2022-12-17T19:39:57.702Z,97399.88
2022-12-17T19:42:26.909Z,97407.13
2022-12-17T19:44:56.747Z,97405.72
2022-12-17T19:47:25.248Z,97408.72
2022-12-17T19:49:53.540Z,97416.56
2022-12-17T19:52:21.805Z,97414.88
2022-12-17T19:54:51.462Z,97416.88
2022-12-17T19:57:19.805Z,97406.38
2022-12-17T19:59:48.068Z,97413.41
2022-12-17T20:02:17.432Z,97414.00
2022-12-17T20:04:45.854Z,97416.78
2022-12-17T20:07:14.055Z,97413.91
2022-12-17T20:09:44.608Z,97405.66
2022-12-17T20:12:14.248Z,97405.97
2022-12-17T20:14:42.516Z,97400.91
2022-12-17T20:17:10.995Z,97407.91
2022-12-17T20:19:39.303Z,97410.97
2022-12-17T20:22:07.865Z,97408.84
2022-12-17T20:24:37.266Z,97412.81
2022-12-17T20:27:05.831Z,97409.28
2022-12-17T20:29:35.826Z,97417.19
2022-12-17T20:32:04.252Z,97410.50
2022-12-17T20:34:32.778Z,97408.34
2022-12-17T20:37:01.082Z,97415.94
2022-12-17T20:39:29.912Z,97417.41
2022-12-17T20:41:58.540Z,97418.72
2022-12-17T20:44:26.922Z,97416.34
2022-12-17T20:46:56.633Z,97427.06
2022-12-17T20:49:24.891Z,97425.44
2022-12-17T20:51:53.182Z,97420.84
2022-12-17T20:54:22.138Z,97430.38
2022-12-17T20:56:50.401Z,97431.25
2022-12-17T20:59:19.770Z,97433.38
2022-12-17T21:01:54.260Z,97429.91
2022-12-17T21:04:25.582Z,97431.78
2022-12-17T21:06:53.887Z,97428.63
2022-12-17T21:09:22.863Z,97423.47
2022-12-17T21:11:51.304Z,97428.63
2022-12-17T21:14:20.298Z,97430.50
2022-12-17T21:16:48.692Z,97435.09
2022-12-17T21:19:18.848Z,97427.16
2022-12-17T21:21:48.814Z,97431.38
2022-12-17T21:24:17.155Z,97427.69
2022-12-17T21:26:47.226Z,97428.34
2022-12-17T21:29:16.601Z,97442.97
2022-12-17T21:31:46.820Z,97437.34
2022-12-17T21:34:17.988Z,97440.78
2022-12-17T21:36:48.392Z,97434.72
2022-12-17T21:39:17.943Z,97441.56
2022-12-17T21:42:07.374Z,97446.84
2022-12-17T21:44:36.613Z,97440.66
2022-12-17T21:47:05.499Z,97444.13
2022-12-17T21:49:34.833Z,97448.72
2022-12-17T21:52:08.454Z,97449.94
2022-12-17T21:54:40.302Z,97450.38
2022-12-17T21:57:09.435Z,97458.25
2022-12-17T21:59:38.418Z,97458.00
2022-12-17T22:02:07.376Z,97454.06
2022-12-17T22:04:36.451Z,97465.19
2022-12-17T22:07:17.388Z,97457.38
2022-12-17T22:10:22.535Z,97477.53
2022-12-17T22:13:00.611Z,97462.75
2022-12-17T22:15:32.118Z,97463.84
2022-12-17T22:18:05.282Z,97461.38
2022-12-17T22:20:33.608Z,97459.59
2022-12-17T22:23:04.810Z,97469.91
2022-12-17T22:25:33.230Z,97465.38
2022-12-17T22:28:01.497Z,97466.03
2022-12-17T22:30:47.344Z,97466.81
2022-12-17T22:33:39.692Z,97473.50
2022-12-17T22:38:41.682Z,97468.94
2022-12-17T22:43:03.241Z,97471.22
2022-12-17T22:44:43.046Z,97477.56
2022-12-17T22:44:53.268Z,97475.25
2022-12-17T22:47:22.491Z,97481.94
2022-12-17T22:49:50.791Z,97480.75
2022-12-17T22:52:20.379Z,97482.94
2022-12-17T22:54:50.432Z,97472.81
2022-12-17T22:57:37.379Z,97479.97
2022-12-17T23:00:13.108Z,97473.41
2022-12-17T23:02:41.354Z,97484.06
2022-12-17T23:05:10.441Z,97484.00
2022-12-17T23:07:38.661Z,97486.19
2022-12-17T23:10:09.011Z,97484.63
2022-12-17T23:12:52.508Z,97488.56
2022-12-17T23:15:24.564Z,97484.25
2022-12-17T23:17:54.526Z,97479.13
2022-12-17T23:20:23.695Z,97481.66
2022-12-17T23:22:51.939Z,97479.31
2022-12-17T23:25:22.489Z,97477.53
2022-12-17T23:27:51.026Z,97480.53
2022-12-17T23:30:20.677Z,97491.41
2022-12-17T23:32:49.182Z,97481.31
2022-12-17T23:35:17.506Z,97480.97
2022-12-17T23:37:45.835Z,97482.78
2022-12-17T23:40:14.832Z,97473.47
2022-12-17T23:42:44.419Z,97474.03
2022-12-17T23:45:13.704Z,97469.25
2022-12-17T23:47:42.079Z,97457.88
2022-12-17T23:50:11.223Z,97467.72
2022-12-17T23:52:39.611Z,97455.78
2022-12-17T23:55:08.733Z,97454.81
2022-12-17T23:57:36.966Z,97453.06
